createdAt,value
2023-05-23T00:01:25.181Z,24.88
2023-05-23T00:03:52.981Z,23.55
2023-05-23T00:06:22.657Z,23.20
2023-05-23T00:08:50.639Z,23.17
2023-05-23T00:11:20.149Z,22.52
2023-05-23T00:13:46.846Z,22.63
2023-05-23T00:16:13.696Z,22.42
2023-05-23T00:18:56.306Z,23.30
2023-05-23T00:21:23.153Z,22.95
2023-05-23T00:23:50.754Z,22.80
2023-05-23T00:26:17.464Z,23.13
2023-05-23T00:28:44.116Z,23.25
2023-05-23T00:31:13.360Z,23.35
2023-05-23T00:33:40.049Z,22.83
2023-05-23T00:36:06.872Z,22.70
2023-05-23T00:38:36.896Z,23.83
2023-05-23T00:41:09.167Z,24.77
2023-05-23T00:43:35.842Z,24.02
2023-05-23T00:46:02.830Z,24.13
2023-05-23T00:48:29.804Z,22.92
2023-05-23T00:50:57.024Z,23.67
2023-05-23T00:53:27.344Z,23.52
2023-05-23T00:55:54.332Z,23.20
2023-05-23T00:58:21.164Z,23.88
2023-05-23T01:00:52.281Z,23.27
2023-05-23T01:03:20.453Z,23.73
2023-05-23T01:05:47.966Z,23.48
2023-05-23T01:08:16.110Z,23.27
2023-05-23T01:10:42.962Z,22.65
2023-05-23T01:13:30.729Z,25.13
2023-05-23T01:16:02.967Z,23.48
2023-05-23T01:18:55.000Z,22.55
2023-05-23T01:21:23.247Z,23.30
2023-05-23T01:23:52.686Z,22.25
2023-05-23T01:26:20.054Z,23.65
2023-05-23T01:28:48.114Z,22.73
2023-05-23T01:31:16.813Z,22.85
2023-05-23T01:33:53.452Z,22.00
2023-05-23T01:36:20.325Z,22.35
2023-05-23T01:38:49.559Z,22.60
2023-05-23T01:41:19.583Z,23.05
2023-05-23T01:43:47.381Z,22.40
2023-05-23T01:46:18.253Z,22.90
2023-05-23T01:48:45.265Z,22.17
2023-05-23T01:51:12.052Z,22.45
2023-05-23T01:53:38.836Z,23.25
2023-05-23T01:56:05.681Z,23.08
2023-05-23T01:58:32.436Z,23.23
2023-05-23T02:01:01.072Z,23.55
2023-05-23T02:03:33.717Z,23.30
2023-05-23T02:06:00.410Z,22.27
2023-05-23T02:08:27.100Z,23.30
2023-05-23T02:10:53.828Z,22.85
2023-05-23T02:13:20.520Z,23.75
2023-05-23T02:15:47.227Z,23.63
2023-05-23T02:18:16.662Z,23.02
2023-05-23T02:20:43.427Z,23.75
2023-05-23T02:23:12.906Z,23.58
2023-05-23T02:25:39.865Z,22.67
2023-05-23T02:28:06.614Z,24.63
2023-05-23T02:30:33.328Z,24.38
2023-05-23T02:33:00.105Z,23.38
2023-05-23T02:35:27.326Z,23.55
2023-05-23T02:40:20.732Z,24.88
2023-05-23T02:42:47.411Z,25.00
2023-05-23T02:45:30.104Z,22.83
2023-05-23T02:47:56.838Z,22.92
2023-05-23T02:50:23.656Z,21.73
2023-05-23T02:52:50.320Z,22.98
2023-05-23T02:55:17.008Z,23.95
2023-05-23T02:57:44.528Z,23.63
2023-05-23T03:00:12.016Z,23.38
2023-05-23T03:02:38.813Z,23.23
2023-05-23T03:05:09.431Z,24.33
2023-05-23T03:07:45.286Z,23.05
2023-05-23T03:10:12.133Z,24.13
2023-05-23T03:12:45.122Z,24.10
2023-05-23T03:15:11.968Z,25.25
2023-05-23T03:17:40.138Z,23.23
2023-05-23T03:20:12.737Z,25.50
2023-05-23T03:22:42.367Z,25.90
2023-05-23T03:25:24.044Z,24.42
2023-05-23T03:27:53.817Z,22.73
2023-05-23T03:30:23.696Z,23.45
2023-05-23T03:32:50.839Z,30.40
2023-05-23T03:35:17.607Z,23.17
2023-05-23T03:37:44.478Z,22.30
2023-05-23T03:40:11.388Z,24.27
2023-05-23T03:42:39.313Z,22.67
2023-05-23T03:45:11.598Z,24.00
2023-05-23T03:47:41.657Z,22.45
2023-05-23T03:50:16.789Z,22.98
2023-05-23T03:52:43.486Z,22.67
2023-05-23T03:55:11.604Z,23.20
2023-05-23T03:57:38.728Z,23.15
2023-05-23T04:02:47.367Z,23.60
2023-05-23T04:05:20.558Z,23.13
2023-05-23T04:07:47.315Z,23.23
2023-05-23T04:10:14.108Z,22.83
2023-05-23T04:12:41.909Z,23.30
2023-05-23T04:15:09.246Z,23.48
2023-05-23T04:17:36.092Z,23.13
2023-05-23T04:20:03.083Z,24.77
2023-05-23T04:22:29.836Z,23.25
2023-05-23T04:24:56.739Z,22.77
2023-05-23T04:27:40.170Z,24.63
2023-05-23T04:30:09.532Z,22.98
2023-05-23T04:32:38.902Z,24.13
2023-05-23T04:35:05.787Z,30.95
2023-05-23T04:37:33.324Z,23.27
2023-05-23T04:40:04.080Z,23.02
2023-05-23T04:42:31.232Z,22.70
2023-05-23T04:47:29.138Z,23.63
2023-05-23T04:49:57.621Z,23.75
2023-05-23T04:52:24.439Z,24.08
2023-05-23T04:54:54.979Z,23.25
2023-05-23T04:57:22.362Z,23.85
2023-05-23T04:59:49.014Z,24.13
2023-05-23T05:02:16.359Z,25.15
2023-05-23T05:04:45.689Z,24.13
2023-05-23T05:07:12.392Z,24.92
2023-05-23T05:09:39.124Z,25.00
2023-05-23T05:12:05.915Z,25.38
2023-05-23T05:14:32.640Z,24.52
2023-05-23T05:16:59.496Z,24.20
2023-05-23T05:19:26.403Z,24.15
2023-05-23T05:21:58.041Z,24.25
2023-05-23T05:24:25.318Z,24.10
2023-05-23T05:26:56.378Z,24.27
2023-05-23T05:29:23.424Z,24.30
2023-05-23T05:31:50.180Z,23.73
2023-05-23T05:34:17.089Z,24.38
2023-05-23T05:36:51.061Z,24.33
2023-05-23T05:39:18.024Z,24.35
2023-05-23T05:41:47.086Z,23.92
2023-05-23T05:44:13.963Z,32.80
2023-05-23T05:46:40.750Z,25.00
2023-05-23T05:49:07.883Z,24.38
2023-05-23T05:51:35.207Z,25.33
2023-05-23T05:54:01.900Z,24.83
2023-05-23T05:56:28.789Z,23.90
2023-05-23T05:58:58.261Z,23.92
2023-05-23T06:01:25.678Z,24.55
2023-05-23T06:03:52.465Z,26.48
2023-05-23T06:06:20.032Z,24.90
2023-05-23T06:08:46.721Z,24.65
2023-05-23T06:11:13.523Z,23.92
2023-05-23T06:13:40.213Z,23.92
2023-05-23T06:16:07.492Z,26.30
2023-05-23T06:18:34.266Z,23.80
2023-05-23T06:21:01.123Z,24.80
2023-05-23T06:23:27.986Z,25.30
2023-05-23T06:25:54.707Z,25.75
2023-05-23T06:28:21.602Z,24.73
2023-05-23T06:30:48.340Z,25.35
2023-05-23T06:33:15.158Z,26.05
2023-05-23T06:35:41.901Z,25.67
2023-05-23T06:38:08.623Z,25.85
2023-05-23T06:40:43.125Z,25.08
2023-05-23T06:43:10.773Z,25.00
2023-05-23T06:45:38.682Z,24.85
2023-05-23T06:48:05.586Z,26.13
2023-05-23T06:50:32.452Z,26.00
2023-05-23T06:52:59.182Z,25.08
2023-05-23T06:55:26.080Z,24.92
2023-05-23T06:57:52.892Z,25.52
2023-05-23T07:00:20.081Z,25.45
2023-05-23T07:05:20.011Z,32.13
2023-05-23T07:07:46.782Z,24.70
2023-05-23T07:10:13.573Z,24.25
2023-05-23T07:12:40.403Z,24.92
2023-05-23T07:15:09.890Z,24.45
2023-05-23T07:17:36.762Z,25.27
2023-05-23T07:20:04.904Z,25.42
2023-05-23T07:22:31.824Z,27.23
2023-05-23T07:25:06.147Z,25.40
2023-05-23T07:27:33.005Z,25.80
2023-05-23T07:29:59.729Z,25.20
2023-05-23T07:32:26.507Z,25.27
2023-05-23T07:34:53.307Z,24.92
2023-05-23T07:37:20.244Z,24.85
2023-05-23T07:39:46.987Z,24.45
2023-05-23T07:42:13.723Z,24.00
2023-05-23T07:44:41.537Z,25.13
2023-05-23T07:47:09.379Z,25.27
2023-05-23T07:49:36.169Z,26.27
2023-05-23T07:52:07.216Z,24.95
2023-05-23T07:54:33.968Z,25.05
2023-05-23T07:57:01.307Z,24.42
2023-05-23T07:59:30.784Z,24.70
2023-05-23T08:02:00.120Z,24.58
2023-05-23T08:04:27.165Z,24.15
2023-05-23T08:09:38.237Z,24.42
2023-05-23T08:12:05.157Z,23.73
2023-05-23T08:17:16.464Z,23.80
2023-05-23T08:19:44.175Z,23.48
2023-05-23T08:22:11.008Z,24.35
2023-05-23T08:24:37.739Z,24.65
2023-05-23T08:27:04.610Z,24.95
2023-05-23T08:29:31.395Z,24.63
2023-05-23T08:31:58.178Z,24.85
2023-05-23T08:34:27.923Z,23.10
2023-05-23T08:36:54.698Z,24.33
2023-05-23T08:39:21.412Z,24.65
2023-05-23T08:41:48.358Z,24.00
2023-05-23T08:44:18.552Z,25.63
2023-05-23T08:46:46.656Z,24.75
2023-05-23T08:49:14.617Z,24.17
2023-05-23T08:51:45.957Z,24.45
2023-05-23T08:54:15.999Z,25.90
2023-05-23T08:56:43.924Z,24.48
2023-05-23T08:59:14.804Z,23.40
2023-05-23T09:01:46.422Z,23.77
2023-05-23T09:04:13.207Z,24.58
2023-05-23T09:06:46.266Z,25.75
2023-05-23T09:09:13.044Z,23.70
2023-05-23T09:11:54.243Z,23.63
2023-05-23T09:14:21.003Z,22.90
2023-05-23T09:16:50.827Z,23.90
2023-05-23T09:19:23.498Z,24.20
2023-05-23T09:21:50.969Z,23.63
2023-05-23T09:24:17.707Z,22.88
2023-05-23T09:26:47.027Z,24.27
2023-05-23T09:32:13.073Z,24.38
2023-05-23T09:34:58.900Z,22.45
2023-05-23T09:37:49.267Z,24.08
2023-05-23T09:40:31.606Z,23.08
2023-05-23T09:43:08.920Z,24.60
2023-05-23T09:45:42.841Z,24.17
2023-05-23T09:48:30.664Z,24.30
2023-05-23T09:50:58.274Z,23.98
2023-05-23T10:02:05.169Z,25.88
2023-05-23T10:04:47.793Z,25.45
2023-05-23T10:07:24.067Z,24.67
2023-05-23T10:09:59.070Z,24.08
2023-05-23T10:12:41.268Z,24.67
2023-05-23T10:15:25.912Z,25.42
2023-05-23T10:18:06.552Z,25.10
2023-05-23T10:20:36.186Z,24.23
2023-05-23T10:23:19.914Z,27.23
2023-05-23T10:26:02.770Z,27.45
2023-05-23T10:28:45.825Z,27.65
2023-05-23T10:44:18.001Z,27.70
2023-05-23T10:58:53.521Z,26.48
2023-05-23T11:04:57.977Z,26.48
2023-05-23T12:56:18.436Z,33.92
2023-05-23T12:58:48.672Z,35.38
2023-05-23T13:01:15.879Z,36.50
2023-05-23T13:03:42.894Z,35.88
2023-05-23T13:08:36.307Z,34.25
2023-05-23T13:11:03.231Z,34.13
2023-05-23T13:13:32.930Z,32.10
2023-05-23T13:16:09.775Z,32.88
2023-05-23T13:18:36.543Z,33.60
2023-05-23T13:21:06.502Z,33.17
2023-05-23T13:23:33.323Z,34.50
2023-05-23T13:26:00.069Z,32.03
2023-05-23T13:28:29.472Z,33.65
2023-05-23T13:30:56.837Z,34.08
2023-05-23T13:33:23.913Z,32.03
2023-05-23T13:38:21.082Z,31.25
2023-05-23T13:40:49.706Z,31.88
2023-05-23T13:43:24.733Z,33.20
2023-05-23T13:45:51.535Z,31.40
2023-05-23T13:48:20.990Z,31.80
2023-05-23T13:50:48.060Z,32.55
2023-05-23T13:53:17.083Z,32.47
2023-05-23T13:55:45.547Z,31.83
2023-05-23T13:58:12.918Z,31.63
2023-05-23T14:00:40.502Z,32.63
2023-05-23T14:03:09.085Z,32.47
2023-05-23T14:05:39.862Z,33.63
2023-05-23T14:08:06.778Z,33.60
2023-05-23T14:10:33.759Z,34.67
2023-05-23T14:13:01.245Z,33.92
2023-05-23T14:15:28.578Z,34.08
2023-05-23T14:17:59.462Z,34.58
2023-05-23T14:20:26.505Z,33.13
2023-05-23T14:25:23.388Z,35.17
2023-05-23T14:30:17.448Z,33.78
2023-05-23T14:32:44.254Z,35.85
2023-05-23T14:35:11.801Z,34.75
2023-05-23T14:37:38.689Z,35.15
2023-05-23T14:40:07.469Z,34.05
2023-05-23T14:42:35.348Z,35.20
2023-05-23T14:45:05.050Z,35.30
2023-05-23T14:47:32.969Z,32.58
2023-05-23T14:50:05.464Z,34.65
2023-05-23T14:52:32.328Z,37.22
2023-05-23T14:54:59.065Z,34.53
2023-05-23T14:57:25.799Z,35.28
2023-05-23T14:59:55.922Z,35.25
2023-05-23T15:02:22.697Z,36.05
2023-05-23T15:04:49.480Z,37.20
2023-05-23T15:07:18.564Z,34.55
2023-05-23T15:09:46.143Z,33.38
2023-05-23T15:12:18.550Z,35.28
2023-05-23T15:14:48.697Z,35.50
2023-05-23T15:17:20.640Z,34.78
2023-05-23T15:19:47.440Z,34.15
2023-05-23T15:22:35.119Z,32.45
2023-05-23T15:25:04.437Z,34.17
2023-05-23T15:27:31.090Z,35.33
2023-05-23T15:29:57.790Z,33.50
2023-05-23T15:32:24.631Z,35.28
2023-05-23T15:34:51.520Z,33.05
2023-05-23T15:37:29.830Z,32.42
2023-05-23T15:39:59.002Z,33.85
2023-05-23T15:42:25.869Z,32.58
2023-05-23T15:44:52.595Z,34.00
2023-05-23T15:47:21.015Z,31.55
2023-05-23T15:49:47.792Z,32.75
2023-05-23T15:52:14.518Z,32.03
2023-05-23T15:54:41.279Z,29.77
2023-05-23T15:57:08.014Z,30.55
2023-05-23T15:59:36.401Z,30.55
2023-05-23T16:02:06.599Z,29.25
2023-05-23T16:04:33.455Z,27.95
2023-05-23T16:07:00.187Z,29.60
2023-05-23T16:09:38.763Z,28.75
2023-05-23T16:12:05.781Z,36.97
2023-05-23T16:14:32.448Z,27.95
2023-05-23T16:17:03.524Z,28.75
2023-05-23T16:19:33.690Z,28.50
2023-05-23T16:22:00.726Z,28.48
2023-05-23T16:24:30.560Z,28.67
2023-05-23T16:26:57.710Z,26.45
2023-05-23T16:31:51.237Z,27.70
2023-05-23T16:34:18.012Z,29.17
2023-05-23T16:36:45.109Z,30.27
2023-05-23T16:39:11.966Z,26.02
2023-05-23T16:41:42.600Z,28.70
2023-05-23T16:44:09.387Z,28.67
2023-05-23T16:46:37.866Z,27.75
2023-05-23T16:49:04.644Z,28.48
2023-05-23T16:51:32.358Z,30.48
2023-05-23T16:53:59.016Z,29.15
2023-05-23T16:56:26.439Z,29.05
2023-05-23T16:58:53.196Z,30.25
2023-05-23T17:01:20.189Z,30.02
2023-05-23T17:03:47.736Z,29.70
2023-05-23T17:06:14.500Z,30.15
2023-05-23T17:08:41.462Z,30.40
2023-05-23T17:11:12.940Z,32.17
2023-05-23T17:13:39.679Z,30.55
2023-05-23T17:16:06.499Z,30.50
2023-05-23T17:18:36.232Z,30.15
2023-05-23T17:21:02.929Z,30.45
2023-05-23T17:23:29.668Z,29.83
2023-05-23T17:25:56.380Z,28.25
2023-05-23T17:28:23.593Z,31.00
2023-05-23T17:30:51.936Z,26.17
2023-05-23T17:33:18.783Z,31.65
2023-05-23T17:35:45.531Z,31.52
2023-05-23T17:38:12.328Z,32.83
2023-05-23T17:40:39.053Z,31.60
2023-05-23T17:43:05.973Z,32.65
2023-05-23T17:45:32.684Z,30.13
2023-05-23T17:48:03.837Z,28.05
2023-05-23T17:50:32.548Z,26.95
2023-05-23T17:53:04.200Z,24.92
2023-05-23T17:55:31.119Z,28.15
2023-05-23T17:57:57.945Z,25.40
2023-05-23T18:00:25.583Z,27.83
2023-05-23T18:02:54.500Z,26.15
2023-05-23T18:05:21.390Z,24.08
2023-05-23T18:07:48.215Z,27.77
2023-05-23T18:10:14.950Z,26.63
2023-05-23T18:12:46.189Z,21.25
2023-05-23T18:15:13.465Z,25.13
2023-05-23T18:20:08.737Z,24.88
2023-05-23T18:22:35.517Z,26.15
2023-05-23T18:25:02.688Z,24.60
2023-05-23T18:27:29.557Z,24.08
2023-05-23T18:29:57.016Z,26.58
2023-05-23T18:32:24.318Z,26.80
2023-05-23T18:34:51.110Z,24.15
2023-05-23T18:37:17.885Z,21.27
2023-05-23T18:39:44.676Z,28.02
2023-05-23T18:42:11.530Z,27.73
2023-05-23T18:44:38.230Z,27.15
2023-05-23T18:47:06.505Z,27.52
2023-05-23T18:49:33.355Z,26.23
2023-05-23T18:52:02.686Z,25.75
2023-05-23T18:54:29.494Z,26.83
2023-05-23T18:56:56.213Z,26.98
2023-05-23T18:59:22.975Z,29.50
2023-05-23T19:01:49.695Z,26.20
2023-05-23T19:04:16.587Z,33.95
2023-05-23T19:06:43.861Z,28.90
2023-05-23T19:09:14.715Z,26.98
2023-05-23T19:11:41.462Z,26.70
2023-05-23T19:14:08.229Z,26.67
2023-05-23T19:16:37.933Z,26.50
2023-05-23T19:19:04.643Z,25.17
2023-05-23T19:21:32.572Z,26.70
2023-05-23T19:23:59.359Z,28.95
2023-05-23T19:26:26.661Z,26.05
2023-05-23T19:28:53.389Z,26.27
2023-05-23T19:31:20.126Z,25.38
2023-05-23T19:33:46.893Z,26.85
2023-05-23T19:36:13.708Z,27.33
2023-05-23T19:38:40.491Z,26.42
2023-05-23T19:41:07.810Z,27.42
2023-05-23T19:48:28.230Z,22.13
2023-05-23T19:50:55.003Z,27.98
2023-05-23T19:53:23.178Z,27.33
2023-05-23T19:55:50.014Z,27.05
2023-05-23T19:58:16.781Z,25.33
2023-05-23T20:00:43.969Z,26.58
2023-05-23T20:03:11.006Z,27.50
2023-05-23T20:05:37.827Z,26.60
2023-05-23T20:08:04.627Z,25.92
2023-05-23T20:10:34.206Z,25.27
2023-05-23T20:13:00.918Z,25.98
2023-05-23T20:15:39.499Z,26.38
2023-05-23T20:18:11.825Z,26.85
2023-05-23T20:20:38.600Z,25.02
2023-05-23T20:23:05.878Z,26.70
2023-05-23T20:28:03.734Z,21.98
2023-05-23T20:30:30.489Z,25.02
2023-05-23T20:32:57.306Z,25.67
2023-05-23T20:35:24.584Z,25.58
2023-05-23T20:37:51.885Z,26.63
2023-05-23T20:42:45.379Z,25.63
2023-05-23T20:45:12.133Z,26.25
2023-05-23T20:47:42.061Z,22.75
2023-05-23T20:55:18.337Z,25.67
2023-05-23T20:57:45.022Z,26.15
2023-05-23T21:00:12.812Z,25.73
2023-05-23T21:02:40.009Z,25.75
2023-05-23T21:05:25.393Z,26.67
2023-05-23T21:07:52.088Z,26.88
2023-05-23T21:10:18.917Z,26.10
2023-05-23T21:12:50.474Z,25.83
2023-05-23T21:15:17.572Z,25.92
2023-05-23T21:17:44.549Z,26.05
2023-05-23T21:23:01.892Z,25.77
2023-05-23T21:25:28.709Z,24.30
2023-05-23T21:27:55.456Z,27.42
2023-05-23T21:30:24.361Z,24.45
2023-05-23T21:32:52.719Z,25.08
2023-05-23T21:35:19.627Z,27.05
2023-05-23T21:37:46.384Z,26.40
2023-05-23T21:40:13.195Z,25.17
2023-05-23T21:42:39.932Z,26.42
2023-05-23T21:45:07.214Z,25.23
2023-05-23T21:50:00.794Z,24.55
2023-05-23T21:52:27.483Z,24.88
2023-05-23T21:54:54.269Z,25.40
2023-05-23T21:57:24.255Z,25.15
2023-05-23T21:59:50.977Z,25.30
2023-05-23T22:02:17.770Z,21.20
2023-05-23T22:04:46.341Z,25.20
2023-05-23T22:07:13.124Z,24.15
2023-05-23T22:09:39.822Z,26.48
2023-05-23T22:12:06.930Z,25.15
2023-05-23T22:14:33.638Z,24.63
2023-05-23T22:17:02.472Z,23.58
2023-05-23T22:19:30.381Z,25.25
2023-05-23T22:22:12.589Z,24.73
2023-05-23T22:24:39.461Z,23.48
2023-05-23T22:27:07.201Z,25.33
2023-05-23T22:29:33.992Z,24.88
2023-05-23T22:32:00.931Z,25.75
2023-05-23T22:34:27.762Z,24.92
2023-05-23T22:37:14.052Z,25.58
2023-05-23T22:39:40.823Z,23.42
2023-05-23T22:42:08.435Z,25.73
2023-05-23T22:44:47.905Z,24.52
2023-05-23T22:47:14.757Z,26.08
2023-05-23T22:49:45.891Z,24.83
2023-05-23T22:52:31.436Z,23.90
2023-05-23T22:54:58.142Z,24.55
2023-05-23T22:57:24.860Z,24.05
2023-05-23T22:59:51.628Z,24.73
2023-05-23T23:02:18.533Z,26.52
2023-05-23T23:04:48.639Z,22.33
2023-05-23T23:07:24.578Z,24.83
2023-05-23T23:09:51.592Z,25.40
2023-05-23T23:12:18.297Z,23.92
2023-05-23T23:14:47.736Z,23.65
2023-05-23T23:17:14.810Z,23.73
2023-05-23T23:19:41.633Z,24.13
2023-05-23T23:22:09.340Z,24.70
2023-05-23T23:24:36.054Z,27.08
2023-05-23T23:27:02.728Z,26.13
2023-05-23T23:29:29.486Z,25.27
2023-05-23T23:31:59.076Z,25.92
2023-05-23T23:34:35.150Z,26.23
2023-05-23T23:37:01.847Z,28.30
2023-05-23T23:39:28.661Z,25.90
2023-05-23T23:41:55.392Z,24.92
2023-05-23T23:44:22.175Z,24.92
2023-05-23T23:46:49.036Z,24.50
2023-05-23T23:49:15.945Z,25.88
2023-05-23T23:51:46.570Z,25.15
2023-05-23T23:54:13.339Z,24.73
2023-05-23T23:56:40.052Z,24.42
2023-05-23T23:59:06.839Z,25.40
